sensor_id;sensor_type;location;lat;lon;timestamp;P1;durP1;ratioP1;P2;durP2;ratioP2
53269;SDS011;39159;45.634;9.420;2023-02-01T00:01:32;77.38;;;38.47;;
53269;SDS011;39159;45.634;9.420;2023-02-01T00:03:58;76.65;;;40.03;;
53269;SDS011;39159;45.634;9.420;2023-02-01T00:06:23;74.10;;;38.65;;
53269;SDS011;39159;45.634;9.420;2023-02-01T00:08:51;78.40;;;39.45;;
53269;SDS011;39159;45.634;9.420;2023-02-01T00:11:18;76.65;;;38.97;;
53269;SDS011;39159;45.634;9.420;2023-02-01T00:13:43;74.90;;;37.03;;
53269;SDS011;39159;45.634;9.420;2023-02-01T00:16:09;80.60;;;40.47;;
53269;SDS011;39159;45.634;9.420;2023-02-01T00:18:37;81.35;;;39.55;;
53269;SDS011;39159;45.634;9.420;2023-02-01T00:21:02;84.90;;;40.85;;
53269;SDS011;39159;45.634;9.420;2023-02-01T00:23:28;76.55;;;39.85;;
53269;SDS011;39159;45.634;9.420;2023-02-01T00:25:53;75.72;;;38.05;;
53269;SDS011;39159;45.634;9.420;2023-02-01T00:28:19;85.10;;;40.55;;
53269;SDS011;39159;45.634;9.420;2023-02-01T00:30:44;82.20;;;38.72;;
53269;SDS011;39159;45.634;9.420;2023-02-01T00:33:10;79.15;;;37.05;;
53269;SDS011;39159;45.634;9.420;2023-02-01T00:35:35;80.22;;;38.83;;
53269;SDS011;39159;45.634;9.420;2023-02-01T00:38:01;74.13;;;36.00;;
53269;SDS011;39159;45.634;9.420;2023-02-01T00:40:27;73.57;;;35.20;;
53269;SDS011;39159;45.634;9.420;2023-02-01T00:42:52;70.55;;;34.28;;
53269;SDS011;39159;45.634;9.420;2023-02-01T00:45:18;65.72;;;34.00;;
53269;SDS011;39159;45.634;9.420;2023-02-01T00:47:44;71.20;;;33.20;;
53269;SDS011;39159;45.634;9.420;2023-02-01T00:50:10;60.42;;;30.50;;
53269;SDS011;39159;45.634;9.420;2023-02-01T00:52:35;62.60;;;31.52;;
53269;SDS011;39159;45.634;9.420;2023-02-01T00:55:01;66.50;;;33.35;;
53269;SDS011;39159;45.634;9.420;2023-02-01T00:57:26;65.28;;;33.05;;
53269;SDS011;39159;45.634;9.420;2023-02-01T00:59:52;59.60;;;31.55;;
53269;SDS011;39159;45.634;9.420;2023-02-01T01:02:17;61.55;;;30.73;;
53269;SDS011;39159;45.634;9.420;2023-02-01T01:04:42;66.72;;;30.90;;
53269;SDS011;39159;45.634;9.420;2023-02-01T01:07:08;65.35;;;32.42;;
53269;SDS011;39159;45.634;9.420;2023-02-01T01:09:33;64.97;;;30.88;;
53269;SDS011;39159;45.634;9.420;2023-02-01T01:11:59;63.28;;;31.98;;
53269;SDS011;39159;45.634;9.420;2023-02-01T01:14:28;67.45;;;32.70;;
53269;SDS011;39159;45.634;9.420;2023-02-01T01:16:54;66.03;;;31.88;;
53269;SDS011;39159;45.634;9.420;2023-02-01T01:19:19;60.80;;;30.27;;
53269;SDS011;39159;45.634;9.420;2023-02-01T01:21:45;63.58;;;30.33;;
53269;SDS011;39159;45.634;9.420;2023-02-01T01:24:10;55.83;;;28.10;;
53269;SDS011;39159;45.634;9.420;2023-02-01T01:26:35;54.95;;;25.98;;
53269;SDS011;39159;45.634;9.420;2023-02-01T01:29:01;50.95;;;25.42;;
53269;SDS011;39159;45.634;9.420;2023-02-01T01:31:26;49.58;;;24.42;;
53269;SDS011;39159;45.634;9.420;2023-02-01T01:33:53;46.42;;;23.30;;
53269;SDS011;39159;45.634;9.420;2023-02-01T01:36:20;47.45;;;22.90;;
53269;SDS011;39159;45.634;9.420;2023-02-01T01:38:46;46.42;;;22.17;;
53269;SDS011;39159;45.634;9.420;2023-02-01T01:41:13;51.05;;;22.35;;
53269;SDS011;39159;45.634;9.420;2023-02-01T01:43:48;39.13;;;20.35;;
53269;SDS011;39159;45.634;9.420;2023-02-01T01:46:22;36.58;;;18.83;;
53269;SDS011;39159;45.634;9.420;2023-02-01T01:51:25;39.72;;;20.00;;
53269;SDS011;39159;45.634;9.420;2023-02-01T01:53:55;38.00;;;18.60;;
53269;SDS011;39159;45.634;9.420;2023-02-01T01:56:27;40.70;;;19.30;;
53269;SDS011;39159;45.634;9.420;2023-02-01T01:58:54;36.63;;;18.10;;
53269;SDS011;39159;45.634;9.420;2023-02-01T02:01:20;33.03;;;17.65;;
53269;SDS011;39159;45.634;9.420;2023-02-01T02:03:46;39.15;;;19.83;;
53269;SDS011;39159;45.634;9.420;2023-02-01T02:06:33;41.40;;;19.98;;
53269;SDS011;39159;45.634;9.420;2023-02-01T02:09:12;43.45;;;21.23;;
53269;SDS011;39159;45.634;9.420;2023-02-01T02:11:39;40.00;;;21.88;;
53269;SDS011;39159;45.634;9.420;2023-02-01T02:14:05;45.25;;;21.17;;
53269;SDS011;39159;45.634;9.420;2023-02-01T02:27:53;29.48;;;15.70;;
53269;SDS011;39159;45.634;9.420;2023-02-01T02:36:14;34.83;;;17.73;;
53269;SDS011;39159;45.634;9.420;2023-02-01T02:39:06;31.50;;;17.35;;
53269;SDS011;39159;45.634;9.420;2023-02-01T02:41:54;38.63;;;17.73;;
53269;SDS011;39159;45.634;9.420;2023-02-01T02:44:57;36.85;;;17.90;;
53269;SDS011;39159;45.634;9.420;2023-02-01T02:50:37;27.20;;;14.25;;
53269;SDS011;39159;45.634;9.420;2023-02-01T02:56:20;27.85;;;13.40;;
53269;SDS011;39159;45.634;9.420;2023-02-01T02:59:06;25.63;;;11.75;;
53269;SDS011;39159;45.634;9.420;2023-02-01T03:01:52;22.60;;;11.20;;
53269;SDS011;39159;45.634;9.420;2023-02-01T03:04:37;25.50;;;11.77;;
53269;SDS011;39159;45.634;9.420;2023-02-01T03:07:45;26.58;;;12.23;;
53269;SDS011;39159;45.634;9.420;2023-02-01T03:10:23;22.90;;;11.60;;
53269;SDS011;39159;45.634;9.420;2023-02-01T03:12:49;23.70;;;10.93;;
53269;SDS011;39159;45.634;9.420;2023-02-01T03:18:04;23.15;;;11.25;;
53269;SDS011;39159;45.634;9.420;2023-02-01T03:20:37;26.80;;;11.02;;
53269;SDS011;39159;45.634;9.420;2023-02-01T03:23:06;25.20;;;12.13;;
53269;SDS011;39159;45.634;9.420;2023-02-01T03:25:32;22.13;;;11.75;;
53269;SDS011;39159;45.634;9.420;2023-02-01T03:28:03;21.95;;;11.82;;
53269;SDS011;39159;45.634;9.420;2023-02-01T03:30:32;19.77;;;10.48;;
53269;SDS011;39159;45.634;9.420;2023-02-01T03:33:02;20.00;;;10.40;;
53269;SDS011;39159;45.634;9.420;2023-02-01T03:36:12;20.75;;;10.85;;
53269;SDS011;39159;45.634;9.420;2023-02-01T03:38:43;20.23;;;10.55;;
53269;SDS011;39159;45.634;9.420;2023-02-01T03:41:37;23.05;;;11.07;;
53269;SDS011;39159;45.634;9.420;2023-02-01T03:46:58;20.88;;;11.25;;
53269;SDS011;39159;45.634;9.420;2023-02-01T03:49:33;20.50;;;11.27;;
53269;SDS011;39159;45.634;9.420;2023-02-01T03:52:01;23.20;;;11.60;;
53269;SDS011;39159;45.634;9.420;2023-02-01T03:54:28;20.60;;;10.38;;
53269;SDS011;39159;45.634;9.420;2023-02-01T03:56:56;18.90;;;10.35;;
53269;SDS011;39159;45.634;9.420;2023-02-01T03:59:24;18.58;;;9.43;;
53269;SDS011;39159;45.634;9.420;2023-02-01T04:01:50;17.38;;;9.73;;
53269;SDS011;39159;45.634;9.420;2023-02-01T04:04:16;17.42;;;9.88;;
53269;SDS011;39159;45.634;9.420;2023-02-01T04:06:51;20.67;;;9.98;;
53269;SDS011;39159;45.634;9.420;2023-02-01T04:09:16;17.98;;;9.55;;
53269;SDS011;39159;45.634;9.420;2023-02-01T04:11:42;16.75;;;9.50;;
53269;SDS011;39159;45.634;9.420;2023-02-01T04:14:08;21.25;;;9.88;;
53269;SDS011;39159;45.634;9.420;2023-02-01T04:16:33;21.45;;;10.27;;
53269;SDS011;39159;45.634;9.420;2023-02-01T04:18:59;17.58;;;9.77;;
53269;SDS011;39159;45.634;9.420;2023-02-01T04:21:25;21.42;;;11.35;;
53269;SDS011;39159;45.634;9.420;2023-02-01T04:23:51;20.90;;;11.13;;
53269;SDS011;39159;45.634;9.420;2023-02-01T04:26:16;20.90;;;9.88;;
53269;SDS011;39159;45.634;9.420;2023-02-01T04:28:42;19.35;;;9.32;;
53269;SDS011;39159;45.634;9.420;2023-02-01T04:31:07;18.92;;;9.95;;
53269;SDS011;39159;45.634;9.420;2023-02-01T04:33:33;20.17;;;10.10;;
53269;SDS011;39159;45.634;9.420;2023-02-01T04:35:58;19.00;;;10.10;;
53269;SDS011;39159;45.634;9.420;2023-02-01T04:38:24;20.48;;;10.93;;
53269;SDS011;39159;45.634;9.420;2023-02-01T04:40:50;19.00;;;10.40;;
53269;SDS011;39159;45.634;9.420;2023-02-01T04:43:16;21.20;;;10.15;;
53269;SDS011;39159;45.634;9.420;2023-02-01T04:45:46;23.42;;;10.55;;
53269;SDS011;39159;45.634;9.420;2023-02-01T04:48:12;21.48;;;9.88;;
53269;SDS011;39159;45.634;9.420;2023-02-01T04:50:38;23.20;;;10.52;;
53269;SDS011;39159;45.634;9.420;2023-02-01T04:53:03;21.73;;;10.05;;
53269;SDS011;39159;45.634;9.420;2023-02-01T04:55:28;20.25;;;10.00;;
53269;SDS011;39159;45.634;9.420;2023-02-01T04:57:54;22.30;;;9.93;;
53269;SDS011;39159;45.634;9.420;2023-02-01T05:00:20;16.52;;;9.60;;
53269;SDS011;39159;45.634;9.420;2023-02-01T05:02:45;18.88;;;9.48;;
53269;SDS011;39159;45.634;9.420;2023-02-01T05:05:11;16.05;;;8.75;;
53269;SDS011;39159;45.634;9.420;2023-02-01T05:07:36;20.00;;;9.02;;
53269;SDS011;39159;45.634;9.420;2023-02-01T05:10:02;21.70;;;8.93;;
53269;SDS011;39159;45.634;9.420;2023-02-01T05:12:27;17.92;;;9.32;;
53269;SDS011;39159;45.634;9.420;2023-02-01T05:15:11;17.63;;;8.63;;
53269;SDS011;39159;45.634;9.420;2023-02-01T05:17:36;13.35;;;7.70;;
53269;SDS011;39159;45.634;9.420;2023-02-01T05:20:02;14.65;;;8.68;;
53269;SDS011;39159;45.634;9.420;2023-02-01T05:22:27;16.67;;;8.85;;
53269;SDS011;39159;45.634;9.420;2023-02-01T05:24:52;15.25;;;8.45;;
53269;SDS011;39159;45.634;9.420;2023-02-01T05:27:18;14.48;;;7.75;;
53269;SDS011;39159;45.634;9.420;2023-02-01T05:29:43;16.45;;;7.65;;
53269;SDS011;39159;45.634;9.420;2023-02-01T05:32:09;18.10;;;8.82;;
53269;SDS011;39159;45.634;9.420;2023-02-01T05:34:35;16.67;;;7.28;;
53269;SDS011;39159;45.634;9.420;2023-02-01T05:37:00;15.30;;;7.53;;
53269;SDS011;39159;45.634;9.420;2023-02-01T05:39:25;13.80;;;7.45;;
53269;SDS011;39159;45.634;9.420;2023-02-01T05:41:51;16.77;;;8.10;;
53269;SDS011;39159;45.634;9.420;2023-02-01T05:44:16;17.40;;;7.20;;
53269;SDS011;39159;45.634;9.420;2023-02-01T05:46:42;13.43;;;7.20;;
53269;SDS011;39159;45.634;9.420;2023-02-01T05:49:07;16.15;;;7.25;;
53269;SDS011;39159;45.634;9.420;2023-02-01T05:51:33;14.40;;;7.40;;
53269;SDS011;39159;45.634;9.420;2023-02-01T05:53:58;13.93;;;6.90;;
53269;SDS011;39159;45.634;9.420;2023-02-01T05:56:24;15.50;;;7.45;;
53269;SDS011;39159;45.634;9.420;2023-02-01T05:58:49;11.48;;;7.25;;
53269;SDS011;39159;45.634;9.420;2023-02-01T06:01:15;13.27;;;6.50;;
53269;SDS011;39159;45.634;9.420;2023-02-01T06:03:40;16.13;;;7.30;;
53269;SDS011;39159;45.634;9.420;2023-02-01T06:06:05;18.60;;;7.32;;
53269;SDS011;39159;45.634;9.420;2023-02-01T06:08:31;13.35;;;6.72;;
53269;SDS011;39159;45.634;9.420;2023-02-01T06:10:57;17.30;;;7.78;;
53269;SDS011;39159;45.634;9.420;2023-02-01T06:13:27;18.15;;;8.20;;
53269;SDS011;39159;45.634;9.420;2023-02-01T06:15:53;17.23;;;8.60;;
53269;SDS011;39159;45.634;9.420;2023-02-01T06:18:18;19.00;;;8.63;;
53269;SDS011;39159;45.634;9.420;2023-02-01T06:20:44;14.02;;;7.70;;
53269;SDS011;39159;45.634;9.420;2023-02-01T06:23:09;15.38;;;8.13;;
53269;SDS011;39159;45.634;9.420;2023-02-01T06:25:35;16.48;;;8.52;;
53269;SDS011;39159;45.634;9.420;2023-02-01T06:28:00;18.73;;;8.75;;
53269;SDS011;39159;45.634;9.420;2023-02-01T06:30:26;14.35;;;8.15;;
53269;SDS011;39159;45.634;9.420;2023-02-01T06:32:52;19.33;;;7.82;;
53269;SDS011;39159;45.634;9.420;2023-02-01T06:35:18;14.52;;;8.25;;
53269;SDS011;39159;45.634;9.420;2023-02-01T06:37:44;18.20;;;7.82;;
53269;SDS011;39159;45.634;9.420;2023-02-01T06:40:10;17.65;;;8.43;;
53269;SDS011;39159;45.634;9.420;2023-02-01T06:42:36;15.32;;;8.23;;
53269;SDS011;39159;45.634;9.420;2023-02-01T06:45:02;22.20;;;8.23;;
53269;SDS011;39159;45.634;9.420;2023-02-01T06:47:28;14.93;;;7.82;;
53269;SDS011;39159;45.634;9.420;2023-02-01T06:49:53;14.68;;;7.55;;
53269;SDS011;39159;45.634;9.420;2023-02-01T06:52:19;15.43;;;8.15;;
53269;SDS011;39159;45.634;9.420;2023-02-01T06:54:44;14.27;;;8.23;;
53269;SDS011;39159;45.634;9.420;2023-02-01T06:57:09;16.45;;;7.30;;
53269;SDS011;39159;45.634;9.420;2023-02-01T06:59:35;15.20;;;7.53;;
53269;SDS011;39159;45.634;9.420;2023-02-01T07:02:00;15.85;;;8.05;;
53269;SDS011;39159;45.634;9.420;2023-02-01T07:04:26;14.20;;;7.43;;
53269;SDS011;39159;45.634;9.420;2023-02-01T07:06:51;14.10;;;7.72;;
53269;SDS011;39159;45.634;9.420;2023-02-01T07:09:16;15.57;;;8.30;;
53269;SDS011;39159;45.634;9.420;2023-02-01T07:11:42;17.25;;;8.57;;
53269;SDS011;39159;45.634;9.420;2023-02-01T07:14:09;14.65;;;7.75;;
53269;SDS011;39159;45.634;9.420;2023-02-01T07:16:35;15.98;;;8.23;;
53269;SDS011;39159;45.634;9.420;2023-02-01T07:19:00;13.63;;;7.30;;
53269;SDS011;39159;45.634;9.420;2023-02-01T07:21:26;14.00;;;7.07;;
53269;SDS011;39159;45.634;9.420;2023-02-01T07:23:53;15.50;;;7.25;;
53269;SDS011;39159;45.634;9.420;2023-02-01T07:26:19;14.55;;;7.22;;
53269;SDS011;39159;45.634;9.420;2023-02-01T07:28:45;15.10;;;6.97;;
53269;SDS011;39159;45.634;9.420;2023-02-01T07:31:12;12.57;;;6.97;;
53269;SDS011;39159;45.634;9.420;2023-02-01T07:33:42;14.90;;;7.43;;
53269;SDS011;39159;45.634;9.420;2023-02-01T07:36:10;14.00;;;7.28;;
53269;SDS011;39159;45.634;9.420;2023-02-01T07:38:37;13.65;;;6.90;;
53269;SDS011;39159;45.634;9.420;2023-02-01T07:41:03;17.40;;;7.88;;
53269;SDS011;39159;45.634;9.420;2023-02-01T07:43:30;14.55;;;7.57;;
53269;SDS011;39159;45.634;9.420;2023-02-01T07:45:56;18.65;;;7.68;;
53269;SDS011;39159;45.634;9.420;2023-02-01T07:48:22;14.18;;;7.75;;
53269;SDS011;39159;45.634;9.420;2023-02-01T07:50:56;13.95;;;8.35;;
53269;SDS011;39159;45.634;9.420;2023-02-01T07:53:25;18.45;;;8.55;;
53269;SDS011;39159;45.634;9.420;2023-02-01T07:55:51;15.82;;;8.40;;
53269;SDS011;39159;45.634;9.420;2023-02-01T07:58:16;13.13;;;6.75;;
53269;SDS011;39159;45.634;9.420;2023-02-01T08:00:41;16.33;;;8.20;;
53269;SDS011;39159;45.634;9.420;2023-02-01T08:03:26;14.85;;;7.32;;
53269;SDS011;39159;45.634;9.420;2023-02-01T08:05:55;17.65;;;8.15;;
53269;SDS011;39159;45.634;9.420;2023-02-01T08:08:20;14.07;;;7.63;;
53269;SDS011;39159;45.634;9.420;2023-02-01T08:10:46;14.27;;;7.68;;
53269;SDS011;39159;45.634;9.420;2023-02-01T08:13:12;15.18;;;7.28;;
53269;SDS011;39159;45.634;9.420;2023-02-01T08:15:37;20.83;;;8.52;;
53269;SDS011;39159;45.634;9.420;2023-02-01T08:18:03;17.58;;;7.13;;
53269;SDS011;39159;45.634;9.420;2023-02-01T08:20:29;19.98;;;9.70;;
53269;SDS011;39159;45.634;9.420;2023-02-01T08:22:54;17.70;;;8.45;;
53269;SDS011;39159;45.634;9.420;2023-02-01T08:25:20;22.25;;;8.88;;
53269;SDS011;39159;45.634;9.420;2023-02-01T08:27:46;19.27;;;8.73;;
53269;SDS011;39159;45.634;9.420;2023-02-01T08:30:11;22.70;;;9.80;;
53269;SDS011;39159;45.634;9.420;2023-02-01T08:32:37;22.75;;;9.27;;
53269;SDS011;39159;45.634;9.420;2023-02-01T08:35:06;20.35;;;10.02;;
53269;SDS011;39159;45.634;9.420;2023-02-01T08:37:32;24.52;;;10.63;;
53269;SDS011;39159;45.634;9.420;2023-02-01T08:39:57;22.65;;;9.70;;
53269;SDS011;39159;45.634;9.420;2023-02-01T08:42:23;19.10;;;10.05;;
53269;SDS011;39159;45.634;9.420;2023-02-01T08:45:07;27.80;;;11.95;;
53269;SDS011;39159;45.634;9.420;2023-02-01T08:47:33;20.52;;;10.52;;
53269;SDS011;39159;45.634;9.420;2023-02-01T08:49:59;20.42;;;10.93;;
53269;SDS011;39159;45.634;9.420;2023-02-01T08:52:25;22.08;;;11.32;;
53269;SDS011;39159;45.634;9.420;2023-02-01T08:54:51;21.02;;;11.55;;
53269;SDS011;39159;45.634;9.420;2023-02-01T08:57:16;21.75;;;11.75;;
53269;SDS011;39159;45.634;9.420;2023-02-01T08:59:42;25.50;;;11.68;;
53269;SDS011;39159;45.634;9.420;2023-02-01T09:02:12;23.92;;;10.55;;
53269;SDS011;39159;45.634;9.420;2023-02-01T09:04:39;21.40;;;10.20;;
53269;SDS011;39159;45.634;9.420;2023-02-01T09:07:06;23.02;;;11.45;;
53269;SDS011;39159;45.634;9.420;2023-02-01T09:09:31;20.27;;;10.90;;
53269;SDS011;39159;45.634;9.420;2023-02-01T09:11:57;26.45;;;13.07;;
53269;SDS011;39159;45.634;9.420;2023-02-01T09:14:22;21.42;;;12.45;;
53269;SDS011;39159;45.634;9.420;2023-02-01T09:16:47;19.85;;;12.10;;
53269;SDS011;39159;45.634;9.420;2023-02-01T09:19:13;19.92;;;11.40;;
53269;SDS011;39159;45.634;9.420;2023-02-01T09:21:39;20.33;;;12.25;;
53269;SDS011;39159;45.634;9.420;2023-02-01T09:24:04;20.98;;;12.48;;
53269;SDS011;39159;45.634;9.420;2023-02-01T09:26:30;22.25;;;12.93;;
53269;SDS011;39159;45.634;9.420;2023-02-01T09:28:55;19.52;;;12.07;;
53269;SDS011;39159;45.634;9.420;2023-02-01T09:31:20;23.83;;;11.52;;
53269;SDS011;39159;45.634;9.420;2023-02-01T09:33:46;24.65;;;11.90;;
53269;SDS011;39159;45.634;9.420;2023-02-01T09:36:11;22.10;;;12.75;;
53269;SDS011;39159;45.634;9.420;2023-02-01T09:38:37;24.77;;;13.80;;
53269;SDS011;39159;45.634;9.420;2023-02-01T09:41:07;34.45;;;16.67;;
53269;SDS011;39159;45.634;9.420;2023-02-01T09:43:51;42.85;;;18.75;;
53269;SDS011;39159;45.634;9.420;2023-02-01T09:46:38;34.08;;;16.30;;
53269;SDS011;39159;45.634;9.420;2023-02-01T09:49:04;27.50;;;14.82;;
53269;SDS011;39159;45.634;9.420;2023-02-01T09:51:37;24.25;;;11.27;;
53269;SDS011;39159;45.634;9.420;2023-02-01T09:56:49;15.70;;;8.30;;
53269;SDS011;39159;45.634;9.420;2023-02-01T09:59:34;15.75;;;8.10;;
53269;SDS011;39159;45.634;9.420;2023-02-01T10:02:03;15.48;;;8.90;;
53269;SDS011;39159;45.634;9.420;2023-02-01T10:04:30;18.33;;;8.98;;
53269;SDS011;39159;45.634;9.420;2023-02-01T10:12:57;21.25;;;9.68;;
53269;SDS011;39159;45.634;9.420;2023-02-01T10:28:52;13.65;;;8.63;;
53269;SDS011;39159;45.634;9.420;2023-02-01T10:31:30;21.53;;;9.00;;
53269;SDS011;39159;45.634;9.420;2023-02-01T10:34:00;18.33;;;9.27;;
53269;SDS011;39159;45.634;9.420;2023-02-01T10:36:34;15.07;;;7.68;;
53269;SDS011;39159;45.634;9.420;2023-02-01T10:39:04;15.75;;;7.57;;
53269;SDS011;39159;45.634;9.420;2023-02-01T10:41:33;16.02;;;7.78;;
53269;SDS011;39159;45.634;9.420;2023-02-01T10:44:02;13.23;;;7.50;;
53269;SDS011;39159;45.634;9.420;2023-02-01T10:46:30;16.45;;;7.72;;
53269;SDS011;39159;45.634;9.420;2023-02-01T10:48:56;21.10;;;7.53;;
53269;SDS011;39159;45.634;9.420;2023-02-01T10:51:30;18.58;;;7.78;;
53269;SDS011;39159;45.634;9.420;2023-02-01T10:54:16;16.67;;;7.80;;
53269;SDS011;39159;45.634;9.420;2023-02-01T10:56:46;14.05;;;7.50;;
53269;SDS011;39159;45.634;9.420;2023-02-01T10:59:17;14.95;;;7.63;;
53269;SDS011;39159;45.634;9.420;2023-02-01T11:01:49;16.40;;;7.70;;
53269;SDS011;39159;45.634;9.420;2023-02-01T11:04:22;15.63;;;7.18;;
53269;SDS011;39159;45.634;9.420;2023-02-01T11:09:41;15.77;;;7.40;;
53269;SDS011;39159;45.634;9.420;2023-02-01T11:12:22;15.88;;;6.75;;
53269;SDS011;39159;45.634;9.420;2023-02-01T11:14:55;14.43;;;7.18;;
53269;SDS011;39159;45.634;9.420;2023-02-01T11:17:25;13.27;;;6.82;;
53269;SDS011;39159;45.634;9.420;2023-02-01T11:20:00;15.57;;;8.10;;
53269;SDS011;39159;45.634;9.420;2023-02-01T11:22:31;12.85;;;7.43;;
53269;SDS011;39159;45.634;9.420;2023-02-01T11:24:57;12.48;;;7.40;;
53269;SDS011;39159;45.634;9.420;2023-02-01T11:27:25;15.15;;;7.97;;
53269;SDS011;39159;45.634;9.420;2023-02-01T11:29:52;13.82;;;7.63;;
53269;SDS011;39159;45.634;9.420;2023-02-01T11:32:22;13.93;;;7.18;;
53269;SDS011;39159;45.634;9.420;2023-02-01T11:34:54;13.63;;;7.45;;
53269;SDS011;39159;45.634;9.420;2023-02-01T11:37:25;21.40;;;7.55;;
53269;SDS011;39159;45.634;9.420;2023-02-01T11:39:57;18.42;;;8.35;;
53269;SDS011;39159;45.634;9.420;2023-02-01T11:42:28;15.27;;;7.82;;
53269;SDS011;39159;45.634;9.420;2023-02-01T11:48:09;12.88;;;8.20;;
53269;SDS011;39159;45.634;9.420;2023-02-01T11:50:49;15.55;;;7.82;;
53269;SDS011;39159;45.634;9.420;2023-02-01T12:01:33;18.85;;;6.90;;
53269;SDS011;39159;45.634;9.420;2023-02-01T12:34:24;15.77;;;6.47;;
53269;SDS011;39159;45.634;9.420;2023-02-01T12:40:28;19.30;;;6.22;;
53269;SDS011;39159;45.634;9.420;2023-02-01T12:42:38;10.13;;;5.22;;
53269;SDS011;39159;45.634;9.420;2023-02-01T12:45:24;10.85;;;4.80;;
53269;SDS011;39159;45.634;9.420;2023-02-01T12:47:57;10.32;;;5.53;;
53269;SDS011;39159;45.634;9.420;2023-02-01T12:50:31;11.10;;;5.65;;
53269;SDS011;39159;45.634;9.420;2023-02-01T12:53:15;15.60;;;5.68;;
53269;SDS011;39159;45.634;9.420;2023-02-01T12:55:58;10.25;;;5.20;;
53269;SDS011;39159;45.634;9.420;2023-02-01T12:58:35;9.10;;;5.50;;
53269;SDS011;39159;45.634;9.420;2023-02-01T13:01:07;10.20;;;6.13;;
53269;SDS011;39159;45.634;9.420;2023-02-01T13:06:34;11.00;;;6.10;;
53269;SDS011;39159;45.634;9.420;2023-02-01T13:09:09;9.65;;;5.32;;
53269;SDS011;39159;45.634;9.420;2023-02-01T13:11:42;15.43;;;6.80;;
53269;SDS011;39159;45.634;9.420;2023-02-01T13:16:53;13.05;;;6.43;;
53269;SDS011;39159;45.634;9.420;2023-02-01T13:22:12;9.93;;;5.72;;
53269;SDS011;39159;45.634;9.420;2023-02-01T13:24:47;11.23;;;6.25;;
53269;SDS011;39159;45.634;9.420;2023-02-01T13:27:16;10.63;;;6.43;;
53269;SDS011;39159;45.634;9.420;2023-02-01T13:29:48;11.48;;;6.13;;
53269;SDS011;39159;45.634;9.420;2023-02-01T13:38:03;12.88;;;6.20;;
53269;SDS011;39159;45.634;9.420;2023-02-01T13:40:39;16.13;;;6.80;;
53269;SDS011;39159;45.634;9.420;2023-02-01T13:43:19;13.88;;;7.40;;
53269;SDS011;39159;45.634;9.420;2023-02-01T13:46:02;12.82;;;7.55;;
53269;SDS011;39159;45.634;9.420;2023-02-01T13:48:41;14.90;;;7.60;;
53269;SDS011;39159;45.634;9.420;2023-02-01T13:51:11;15.30;;;7.60;;
53269;SDS011;39159;45.634;9.420;2023-02-01T13:53:38;18.98;;;8.50;;
53269;SDS011;39159;45.634;9.420;2023-02-01T13:56:18;16.55;;;8.32;;
53269;SDS011;39159;45.634;9.420;2023-02-01T13:58:46;16.13;;;8.40;;
53269;SDS011;39159;45.634;9.420;2023-02-01T14:03:48;15.93;;;9.73;;
53269;SDS011;39159;45.634;9.420;2023-02-01T14:19:24;19.92;;;9.63;;
53269;SDS011;39159;45.634;9.420;2023-02-01T14:21:52;21.63;;;10.27;;
53269;SDS011;39159;45.634;9.420;2023-02-01T14:24:25;18.50;;;10.38;;
53269;SDS011;39159;45.634;9.420;2023-02-01T14:26:53;18.75;;;9.75;;
53269;SDS011;39159;45.634;9.420;2023-02-01T14:29:24;21.92;;;11.95;;
53269;SDS011;39159;45.634;9.420;2023-02-01T14:32:01;20.50;;;11.05;;
53269;SDS011;39159;45.634;9.420;2023-02-01T14:58:47;18.35;;;10.27;;
53269;SDS011;39159;45.634;9.420;2023-02-01T15:01:21;19.00;;;8.57;;
53269;SDS011;39159;45.634;9.420;2023-02-01T15:04:04;17.63;;;7.75;;
53269;SDS011;39159;45.634;9.420;2023-02-01T15:12:03;40.90;;;20.35;;
53269;SDS011;39159;45.634;9.420;2023-02-01T15:15:02;17.70;;;7.68;;
53269;SDS011;39159;45.634;9.420;2023-02-01T15:17:35;20.75;;;10.00;;
53269;SDS011;39159;45.634;9.420;2023-02-01T15:20:11;20.80;;;9.93;;
53269;SDS011;39159;45.634;9.420;2023-02-01T15:23:19;20.60;;;9.07;;
53269;SDS011;39159;45.634;9.420;2023-02-01T15:25:44;17.08;;;8.90;;
53269;SDS011;39159;45.634;9.420;2023-02-01T15:28:12;14.65;;;7.30;;
53269;SDS011;39159;45.634;9.420;2023-02-01T15:30:39;14.65;;;7.38;;
53269;SDS011;39159;45.634;9.420;2023-02-01T15:33:15;16.55;;;7.60;;
53269;SDS011;39159;45.634;9.420;2023-02-01T15:38:19;14.40;;;6.85;;
53269;SDS011;39159;45.634;9.420;2023-02-01T15:40:55;12.07;;;5.25;;
53269;SDS011;39159;45.634;9.420;2023-02-01T15:43:23;13.13;;;6.38;;
53269;SDS011;39159;45.634;9.420;2023-02-01T15:45:49;12.07;;;6.00;;
53269;SDS011;39159;45.634;9.420;2023-02-01T15:48:20;10.35;;;5.18;;
53269;SDS011;39159;45.634;9.420;2023-02-01T15:50:50;11.60;;;5.72;;
53269;SDS011;39159;45.634;9.420;2023-02-01T15:53:20;14.40;;;5.28;;
53269;SDS011;39159;45.634;9.420;2023-02-01T15:55:51;8.50;;;5.65;;
53269;SDS011;39159;45.634;9.420;2023-02-01T15:58:19;12.35;;;5.68;;
53269;SDS011;39159;45.634;9.420;2023-02-01T16:00:53;13.65;;;5.65;;
53269;SDS011;39159;45.634;9.420;2023-02-01T16:03:43;19.02;;;8.77;;
53269;SDS011;39159;45.634;9.420;2023-02-01T16:06:10;23.27;;;7.40;;
53269;SDS011;39159;45.634;9.420;2023-02-01T16:08:37;19.30;;;6.97;;
53269;SDS011;39159;45.634;9.420;2023-02-01T16:11:15;23.63;;;8.75;;
53269;SDS011;39159;45.634;9.420;2023-02-01T16:13:45;15.32;;;7.85;;
53269;SDS011;39159;45.634;9.420;2023-02-01T16:16:10;11.48;;;6.55;;
53269;SDS011;39159;45.634;9.420;2023-02-01T16:18:39;12.20;;;6.35;;
53269;SDS011;39159;45.634;9.420;2023-02-01T16:21:05;12.70;;;6.57;;
53269;SDS011;39159;45.634;9.420;2023-02-01T16:23:32;14.68;;;6.40;;
53269;SDS011;39159;45.634;9.420;2023-02-01T16:25:58;16.10;;;6.05;;
53269;SDS011;39159;45.634;9.420;2023-02-01T16:28:23;9.90;;;5.32;;
53269;SDS011;39159;45.634;9.420;2023-02-01T16:30:49;12.35;;;5.55;;
53269;SDS011;39159;45.634;9.420;2023-02-01T16:33:15;15.68;;;5.78;;
53269;SDS011;39159;45.634;9.420;2023-02-01T16:35:45;12.77;;;6.45;;
53269;SDS011;39159;45.634;9.420;2023-02-01T16:38:12;10.77;;;5.85;;
53269;SDS011;39159;45.634;9.420;2023-02-01T16:40:39;9.15;;;5.20;;
53269;SDS011;39159;45.634;9.420;2023-02-01T16:43:13;13.65;;;6.13;;
53269;SDS011;39159;45.634;9.420;2023-02-01T16:45:40;11.45;;;6.05;;
53269;SDS011;39159;45.634;9.420;2023-02-01T16:48:07;16.95;;;7.35;;
53269;SDS011;39159;45.634;9.420;2023-02-01T16:50:33;14.23;;;7.07;;
53269;SDS011;39159;45.634;9.420;2023-02-01T16:52:58;12.70;;;7.10;;
53269;SDS011;39159;45.634;9.420;2023-02-01T16:55:24;16.45;;;7.18;;
53269;SDS011;39159;45.634;9.420;2023-02-01T16:57:50;16.98;;;7.30;;
53269;SDS011;39159;45.634;9.420;2023-02-01T17:00:16;20.67;;;7.38;;
53269;SDS011;39159;45.634;9.420;2023-02-01T17:02:42;11.95;;;6.78;;
53269;SDS011;39159;45.634;9.420;2023-02-01T17:05:08;11.30;;;6.93;;
53269;SDS011;39159;45.634;9.420;2023-02-01T17:07:34;10.85;;;6.15;;
53269;SDS011;39159;45.634;9.420;2023-02-01T17:10:03;16.17;;;7.10;;
53269;SDS011;39159;45.634;9.420;2023-02-01T17:12:31;12.50;;;6.40;;
53269;SDS011;39159;45.634;9.420;2023-02-01T17:14:58;14.73;;;7.40;;
53269;SDS011;39159;45.634;9.420;2023-02-01T17:17:25;17.67;;;8.38;;
53269;SDS011;39159;45.634;9.420;2023-02-01T17:19:57;13.80;;;7.47;;
53269;SDS011;39159;45.634;9.420;2023-02-01T17:22:22;13.82;;;8.00;;
53269;SDS011;39159;45.634;9.420;2023-02-01T17:24:48;14.30;;;8.38;;
53269;SDS011;39159;45.634;9.420;2023-02-01T17:27:14;13.55;;;8.05;;